Birmingham, AL

2:13 PM CST en Diciembre 18, 2014 (GMT -0600)
Central Business District | Change Station
CLOSE
Current Station
Estación meteorológica personal
Location: Birmingham, AL
Altura: 636 ft
Estaciones meteorológicas cercanas

Alt 636 ft 33.52 °N, 86.81 °W | Updated 0 second ago

Nublado
Nublado
50.2 ° F
Sensación térmica 50.2 ° F
N
3.1
Viento Variable Viento desde SE
Gusts 3.4 mph

Hoy
Alta -- | Baja -- ° F
--% Posibilidad de precipitaciones
Ayer
Alta -- | Baja -- ° F
Precip. -- pul
6:45 AM 4:41 PM
Creciente menguante, 12% visible
Presión 30.19 pul
Visibilidad 10.0 Millas
Nubes Muy nublado 4800 ft
Nublado 10000 ft
Punto de rocío 37 ° F
Humedad 61%
Precipitaciones 0.00 pul
Espesor de la nieve No disponible.
UV 1 de una escala de 12
Polen 1.30 de una escala de 12
Calidad del aire No disponible.
Flu Activity No disponible.
METAR KBHM 181953Z 34006KT 10SM BKN048 OVC100 09/01 A3018 RMK AO2 SLP222 T00940006

More Conditions Fewer Conditions

Presión 30.19 pul
Visibilidad 10.0 Millas
Nubes Muy nublado 4800 ft
Nublado 10000 ft
Punto de rocío 37 ° F
Humedad 61%
Precipitaciones 0.00 pul
Espesor de la nieve No disponible.
UV 1 de una escala de 12
Polen 1.30 de una escala de 12
Calidad del aire No disponible.
Flu Activity No disponible.
METAR KBHM 181953Z 34006KT 10SM BKN048 OVC100 09/01 A3018 RMK AO2 SLP222 T00940006

More Conditions Fewer Conditions

10-Day Weather Forecast

Almanac

Astronomía

Dec. 18, 2014 Salida Puesta
Hora real
Crepúsculo civil
Crepúsculo náutico
Crepúsculo astronómico
Luna
Horas de luz
Horas de luz
Tomorrow will be .
, % of the Moon is Illuminated

Extremos de hoy

Máximos del estado Bajos del estado

Community

WunderPhotos

Upload Photos

1,778,992 ¡fotos cargadas!

WunderBlogs® & News

Nearby

Calidad del aire

  Calidad del aire Índice AQ Contaminante
Not available.

Grosos de nieve

Estación Profundido Altura

Actividad de terremotos

Ciudad Distance Mag. Tiempo y dato
Magnitud mínima muestra es 2,5.

Temperaturas de aguas costeras

Lugar Temperatura

Estaciones meteorológicas cercanas